Levelroad, Alabama
Current Conditions -  °F | °C
As of 10:15 AM on Wednesday 22 Oct 2014 (Local Time) from KLGC Reporting Station
Clear Clear  
Wind Chill: 61°   Ceiling: Unl
Heat Index: 61°   Visibility: 10mi
Dew Point: 46°   Wind: 6mph
Humidity: 57%   Direction: 20°NNE
Pressure: 30.12"   Gusts: NA
Location:  33.1661°N, 85.5111°W
Report Text: KLGC 221515Z AUTO 02005KT 10SM CLR 16/08 A3012 RMK AO2 T01590075
Loading
Personal Weather Stations






























Interactive Weather Map New forecast layout! Learn more

10-Day Weather Forecast

Advertisements
Track Severe Weather on mobile